createdAt,value
2023-05-11T00:00:02.120Z,99776.59
2023-05-11T00:00:33.440Z,99775.19
2023-05-11T00:01:05.437Z,99780.22
2023-05-11T00:01:36.748Z,99783.84
2023-05-11T00:02:08.131Z,99779.53
2023-05-11T00:02:39.583Z,99781.31
2023-05-11T00:03:11.155Z,99777.69
2023-05-11T00:03:42.659Z,99776.88
2023-05-11T00:04:14.102Z,99781.19
2023-05-11T00:04:45.531Z,99782.88
2023-05-11T00:05:17.019Z,99784.72
2023-05-11T00:05:48.374Z,99787.25
2023-05-11T00:06:19.684Z,99780.22
2023-05-11T00:06:50.994Z,99773.34
2023-05-11T00:07:22.467Z,99779.41
2023-05-11T00:07:53.819Z,99775.03
2023-05-11T00:08:25.148Z,99784.72
2023-05-11T00:08:56.499Z,99774.06
2023-05-11T00:09:28.158Z,99779.41
2023-05-11T00:09:59.481Z,99769.72
2023-05-11T00:10:30.874Z,99774.06
2023-05-11T00:11:02.411Z,99778.53
2023-05-11T00:11:33.966Z,99778.53
2023-05-11T00:12:05.360Z,99776.75
2023-05-11T00:12:36.667Z,99772.13
2023-05-11T00:13:07.984Z,99775.75
2023-05-11T00:13:39.322Z,99773.94
2023-05-11T00:14:10.685Z,99768.75
2023-05-11T00:14:42.144Z,99779.53
2023-05-11T00:15:13.528Z,99774.06
2023-05-11T00:15:44.878Z,99777.44
2023-05-11T00:16:16.225Z,99774.78
2023-05-11T00:16:47.724Z,99778.28
2023-05-11T00:17:19.068Z,99770.44
2023-05-11T00:17:50.482Z,99770.44
2023-05-11T00:18:22.006Z,99770.44
2023-05-11T00:18:53.395Z,99772.94
2023-05-11T00:19:24.830Z,99769.47
2023-05-11T00:19:56.145Z,99766.09
2023-05-11T00:20:27.481Z,99774.06
2023-05-11T00:20:59.026Z,99764.41
2023-05-11T00:21:30.389Z,99765.25
2023-05-11T00:22:01.734Z,99767.91
2023-05-11T00:22:33.235Z,99769.03
2023-05-11T00:23:04.596Z,99769.84
2023-05-11T00:23:35.927Z,99766.38
2023-05-11T00:24:07.476Z,99769.03
2023-05-11T00:24:38.860Z,99768.03
2023-05-11T00:25:10.164Z,99764.41
2023-05-11T00:25:41.483Z,99762.72
2023-05-11T00:26:12.792Z,99765.38
2023-05-11T00:26:44.120Z,99762.84
2023-05-11T00:27:15.455Z,99763.72
2023-05-11T00:27:46.781Z,99762.00
2023-05-11T00:28:18.154Z,99761.75
2023-05-11T00:28:49.472Z,99764.41
2023-05-11T00:29:20.821Z,99771.69
2023-05-11T00:29:52.278Z,99771.69
2023-05-11T00:30:23.671Z,99770.69
2023-05-11T00:30:55.522Z,99764.41
2023-05-11T00:31:29.584Z,99770.69
2023-05-11T00:32:01.646Z,99764.41
2023-05-11T00:32:33.006Z,99764.53
2023-05-11T00:33:04.487Z,99765.38
2023-05-11T00:33:35.853Z,99769.03
2023-05-11T00:34:07.150Z,99761.88
2023-05-11T00:34:38.442Z,99763.72
2023-05-11T00:35:10.108Z,99763.72
2023-05-11T00:35:41.458Z,99765.66
2023-05-11T00:36:12.808Z,99767.75
2023-05-11T00:36:44.131Z,99767.06
2023-05-11T00:37:15.564Z,99773.34
2023-05-11T00:37:47.090Z,99768.16
2023-05-11T00:38:18.593Z,99758.66
2023-05-11T00:38:49.898Z,99767.34
2023-05-11T00:39:21.206Z,99769.28
2023-05-11T00:39:52.651Z,99762.84
2023-05-11T00:40:24.059Z,99765.81
2023-05-11T00:40:55.379Z,99767.34
2023-05-11T00:41:26.675Z,99762.84
2023-05-11T00:41:58.017Z,99765.50
2023-05-11T00:42:29.290Z,99765.38
2023-05-11T00:43:00.578Z,99767.06
2023-05-11T00:43:31.973Z,99760.91
2023-05-11T00:44:03.301Z,99762.84
2023-05-11T00:44:34.607Z,99759.34
2023-05-11T00:45:06.302Z,99760.06
2023-05-11T00:45:37.661Z,99767.06
2023-05-11T00:46:08.992Z,99762.59
2023-05-11T00:46:40.326Z,99762.00
2023-05-11T00:47:11.687Z,99764.41
2023-05-11T00:47:43.162Z,99765.38
2023-05-11T00:48:14.830Z,99762.84
2023-05-11T00:48:46.192Z,99757.53
2023-05-11T00:49:17.574Z,99763.72
2023-05-11T00:49:49.474Z,99751.25
2023-05-11T00:50:20.940Z,99761.88
2023-05-11T00:50:52.302Z,99755.88
2023-05-11T00:51:23.599Z,99754.03
2023-05-11T00:51:54.901Z,99759.34
2023-05-11T00:52:26.277Z,99758.38
2023-05-11T00:52:57.554Z,99752.50
2023-05-11T00:53:28.859Z,99754.31
2023-05-11T00:54:00.180Z,99748.72
2023-05-11T00:54:31.511Z,99755.31
2023-05-11T00:55:02.869Z,99754.31
2023-05-11T00:55:34.206Z,99753.59
2023-05-11T00:56:05.578Z,99750.13
2023-05-11T00:56:36.953Z,99756.00
2023-05-11T00:57:08.285Z,99753.34
2023-05-11T00:57:39.583Z,99756.97
2023-05-11T00:58:10.878Z,99756.13
2023-05-11T00:58:42.204Z,99754.31
2023-05-11T00:59:13.504Z,99753.47
2023-05-11T00:59:44.853Z,99755.44
2023-05-11T01:00:16.373Z,99753.59
2023-05-11T01:00:47.925Z,99755.31
2023-05-11T01:01:19.430Z,99756.97
2023-05-11T01:01:50.836Z,99758.66
2023-05-11T01:02:22.220Z,99758.38
2023-05-11T01:02:53.752Z,99757.41
2023-05-11T01:03:25.143Z,99759.34
2023-05-11T01:03:56.489Z,99758.38
2023-05-11T01:04:27.854Z,99764.66
2023-05-11T01:04:59.471Z,99757.69
2023-05-11T01:05:33.417Z,99762.28
2023-05-11T01:06:08.922Z,99761.31
2023-05-11T01:06:46.539Z,99756.69
2023-05-11T01:07:21.663Z,99762.84
2023-05-11T01:07:59.705Z,99759.63
2023-05-11T01:08:34.227Z,99763.00
2023-05-11T01:09:23.875Z,99760.63
2023-05-11T01:10:14.014Z,99763.16
2023-05-11T01:10:47.998Z,99762.00
2023-05-11T01:11:41.750Z,99768.34
2023-05-11T01:12:22.465Z,99761.06
2023-05-11T01:12:58.912Z,99765.66
2023-05-11T01:13:50.512Z,99755.88
2023-05-11T01:14:23.243Z,99768.16
2023-05-11T01:14:58.022Z,99763.72
2023-05-11T01:15:46.170Z,99767.34
2023-05-11T01:16:18.960Z,99771.00
2023-05-11T01:16:52.141Z,99771.81
2023-05-11T01:17:25.329Z,99766.50
2023-05-11T01:18:06.870Z,99770.13
2023-05-11T01:18:38.804Z,99764.81
2023-05-11T01:19:18.529Z,99773.78
2023-05-11T01:20:00.480Z,99768.47
2023-05-11T01:20:31.903Z,99767.59
2023-05-11T01:21:03.279Z,99765.06
2023-05-11T01:21:34.602Z,99761.59
2023-05-11T01:22:08.067Z,99771.25
2023-05-11T01:22:58.200Z,99769.44
2023-05-11T01:23:48.275Z,99763.41
2023-05-11T01:24:23.787Z,99758.94
2023-05-11T01:25:10.818Z,99766.75
2023-05-11T01:26:00.351Z,99764.81
2023-05-11T01:26:50.298Z,99764.94
2023-05-11T01:27:27.643Z,99764.09
2023-05-11T01:27:58.916Z,99768.47
2023-05-11T01:29:02.725Z,99772.91
2023-05-11T01:29:33.958Z,99769.56
2023-05-11T01:30:37.325Z,99774.03
2023-05-11T01:31:11.484Z,99774.19
2023-05-11T01:31:42.905Z,99764.38
2023-05-11T01:32:15.588Z,99769.56
2023-05-11T01:32:46.953Z,99763.41
2023-05-11T01:33:19.827Z,99772.22
2023-05-11T01:33:55.388Z,99766.91
2023-05-11T01:34:28.277Z,99765.22
2023-05-11T01:35:18.801Z,99772.34
2023-05-11T01:35:50.734Z,99768.00
2023-05-11T01:36:22.438Z,99774.03
2023-05-11T01:37:20.014Z,99775.84
2023-05-11T01:37:51.788Z,99767.03
2023-05-11T01:38:23.375Z,99771.53
2023-05-11T01:38:54.672Z,99774.03
2023-05-11T01:39:32.655Z,99776.69
2023-05-11T01:40:10.053Z,99769.56
2023-05-11T01:40:41.465Z,99775.84
2023-05-11T01:41:13.936Z,99777.66
2023-05-11T01:41:45.646Z,99777.53
2023-05-11T01:42:16.978Z,99770.66
2023-05-11T01:42:48.568Z,99768.84
2023-05-11T01:43:20.879Z,99771.53
2023-05-11T01:43:55.917Z,99767.88
2023-05-11T01:44:27.264Z,99767.88
2023-05-11T01:44:58.734Z,99771.25
2023-05-11T01:45:31.424Z,99766.75
2023-05-11T01:46:02.841Z,99764.81
2023-05-11T01:46:34.487Z,99775.31
2023-05-11T01:47:05.857Z,99769.28
2023-05-11T01:47:37.262Z,99768.59
2023-05-11T01:48:11.488Z,99781.88
2023-05-11T01:48:44.154Z,99777.28
2023-05-11T01:49:15.492Z,99769.28
2023-05-11T01:49:46.814Z,99773.91
2023-05-11T01:50:18.497Z,99774.88
2023-05-11T01:50:50.063Z,99772.91
2023-05-11T01:51:21.459Z,99766.75
2023-05-11T01:51:52.819Z,99773.19
2023-05-11T01:52:24.857Z,99773.91
2023-05-11T01:52:56.250Z,99772.91
2023-05-11T01:53:28.109Z,99775.56
2023-05-11T01:53:59.560Z,99775.44
2023-05-11T01:54:30.884Z,99778.22
2023-05-11T01:55:02.430Z,99773.78
2023-05-11T01:55:34.107Z,99783.56
2023-05-11T01:56:05.628Z,99779.09
2023-05-11T01:56:37.275Z,99777.28
2023-05-11T01:57:08.642Z,99773.06
2023-05-11T01:57:40.008Z,99776.44
2023-05-11T01:58:11.335Z,99772.91
2023-05-11T01:58:42.659Z,99775.56
2023-05-11T01:59:14.011Z,99774.47
2023-05-11T01:59:45.466Z,99783.56
2023-05-11T02:00:17.198Z,99775.56
2023-05-11T02:00:48.798Z,99775.44
2023-05-11T02:01:20.183Z,99779.94
2023-05-11T02:01:51.563Z,99784.41
2023-05-11T02:02:22.957Z,99785.50
2023-05-11T02:02:54.504Z,99782.72
2023-05-11T02:03:26.117Z,99778.22
2023-05-11T02:03:58.280Z,99786.34
2023-05-11T02:04:29.630Z,99787.22
2023-05-11T02:05:00.924Z,99782.72
2023-05-11T02:05:32.286Z,99785.50
2023-05-11T02:06:06.543Z,99784.56
2023-05-11T02:06:37.970Z,99782.16
2023-05-11T02:07:10.284Z,99789.88
2023-05-11T02:07:41.684Z,99786.47
2023-05-11T02:08:13.041Z,99785.38
2023-05-11T02:08:44.896Z,99782.84
2023-05-11T02:09:16.484Z,99780.19
2023-05-11T02:09:47.839Z,99774.88
2023-05-11T02:10:19.361Z,99783.81
2023-05-11T02:10:50.916Z,99782.72
2023-05-11T02:11:22.507Z,99782.84
2023-05-11T02:11:53.814Z,99776.56
2023-05-11T02:12:25.173Z,99784.56
2023-05-11T02:12:56.596Z,99784.56
2023-05-11T02:13:27.925Z,99779.22
2023-05-11T02:13:59.261Z,99785.50
2023-05-11T02:14:30.594Z,99782.97
2023-05-11T02:15:01.959Z,99784.81
2023-05-11T02:15:33.330Z,99788.56
2023-05-11T02:16:04.800Z,99784.81
2023-05-11T02:16:36.122Z,99789.00
2023-05-11T02:17:07.465Z,99783.81
2023-05-11T02:17:39.152Z,99784.81
2023-05-11T02:18:11.528Z,99783.13
2023-05-11T02:18:42.976Z,99783.81
2023-05-11T02:19:14.344Z,99783.81
2023-05-11T02:19:45.661Z,99792.53
2023-05-11T02:20:17.176Z,99785.50
2023-05-11T02:20:48.701Z,99783.81
2023-05-11T02:21:20.118Z,99781.16
2023-05-11T02:21:51.493Z,99791.78
2023-05-11T02:22:22.794Z,99780.19
2023-05-11T02:22:54.112Z,99786.34
2023-05-11T02:23:25.468Z,99787.22
2023-05-11T02:23:56.807Z,99785.50
2023-05-11T02:24:28.258Z,99780.19
2023-05-11T02:24:59.597Z,99783.94
2023-05-11T02:25:30.947Z,99785.50
2023-05-11T02:26:02.764Z,99786.59
2023-05-11T02:26:34.073Z,99786.75
2023-05-11T02:27:05.358Z,99787.59
2023-05-11T02:27:36.693Z,99786.47
2023-05-11T02:28:08.061Z,99789.72
2023-05-11T02:28:39.407Z,99782.72
2023-05-11T02:29:10.706Z,99790.00
2023-05-11T02:29:42.034Z,99785.66
2023-05-11T02:30:13.348Z,99781.28
2023-05-11T02:30:45.389Z,99789.13
2023-05-11T02:31:17.633Z,99781.28
2023-05-11T02:31:49.202Z,99779.50
2023-05-11T02:32:21.670Z,99782.16
2023-05-11T02:32:53.182Z,99780.31
2023-05-11T02:33:30.670Z,99785.78
2023-05-11T02:34:06.197Z,99775.84
2023-05-11T02:34:43.708Z,99774.03
2023-05-11T02:35:25.358Z,99775.72
2023-05-11T02:35:56.690Z,99776.56
2023-05-11T02:36:28.460Z,99775.72
2023-05-11T02:37:00.697Z,99775.84
2023-05-11T02:37:32.700Z,99775.00
2023-05-11T02:38:04.159Z,99778.50
2023-05-11T02:38:35.551Z,99773.19
2023-05-11T02:39:07.289Z,99775.84
2023-05-11T02:39:38.751Z,99776.69
2023-05-11T02:40:29.351Z,99780.19
2023-05-11T02:41:01.403Z,99775.84
2023-05-11T02:41:32.697Z,99775.97
2023-05-11T02:42:15.068Z,99782.16
2023-05-11T02:42:47.063Z,99785.06
2023-05-11T02:43:24.819Z,99779.63
2023-05-11T02:43:56.650Z,99775.97
2023-05-11T02:44:28.588Z,99785.78
2023-05-11T02:45:03.843Z,99785.91
2023-05-11T02:45:35.441Z,99783.25
2023-05-11T02:46:07.157Z,99786.59
2023-05-11T02:46:38.497Z,99781.41
2023-05-11T02:47:09.853Z,99779.63
2023-05-11T02:47:48.239Z,99781.41
2023-05-11T02:48:21.223Z,99783.81
2023-05-11T02:48:53.131Z,99780.47
2023-05-11T02:49:24.476Z,99789.25
2023-05-11T02:49:55.845Z,99784.81
2023-05-11T02:50:27.409Z,99788.56
2023-05-11T02:50:58.746Z,99782.41
2023-05-11T02:51:33.338Z,99786.75
2023-05-11T02:52:04.630Z,99787.72
2023-05-11T02:52:36.033Z,99785.06
2023-05-11T02:53:08.301Z,99782.41
2023-05-11T02:53:40.078Z,99782.41
2023-05-11T02:54:11.474Z,99784.09
2023-05-11T02:54:42.821Z,99782.28
2023-05-11T02:55:15.007Z,99787.59
2023-05-11T02:55:46.503Z,99787.47
2023-05-11T02:56:17.866Z,99788.44
2023-05-11T02:56:49.217Z,99792.78
2023-05-11T02:57:20.783Z,99788.31
2023-05-11T02:57:52.149Z,99782.16
2023-05-11T02:58:23.498Z,99784.69
2023-05-11T02:58:54.856Z,99786.59
2023-05-11T02:59:26.212Z,99789.13
2023-05-11T02:59:57.549Z,99785.78
2023-05-11T03:00:28.990Z,99787.59
2023-05-11T03:01:00.492Z,99793.63
2023-05-11T03:01:31.987Z,99784.94
2023-05-11T03:02:03.529Z,99785.91
2023-05-11T03:02:35.189Z,99791.22
2023-05-11T03:03:06.809Z,99794.72
2023-05-11T03:03:38.398Z,99794.72
2023-05-11T03:04:09.820Z,99783.50
2023-05-11T03:04:41.270Z,99791.63
2023-05-11T03:05:12.593Z,99793.19
2023-05-11T03:05:43.943Z,99787.03
2023-05-11T03:06:15.337Z,99790.97
2023-05-11T03:06:46.680Z,99790.97
2023-05-11T03:07:18.047Z,99787.72
2023-05-11T03:07:49.364Z,99790.41
2023-05-11T03:08:20.696Z,99796.69
2023-05-11T03:08:52.025Z,99794.16
2023-05-11T03:09:23.354Z,99796.81
2023-05-11T03:09:54.710Z,99791.63
2023-05-11T03:10:26.316Z,99791.09
2023-05-11T03:10:57.785Z,99796.00
2023-05-11T03:11:29.121Z,99796.84
2023-05-11T03:12:00.462Z,99794.44
2023-05-11T03:12:31.837Z,99799.06
2023-05-11T03:13:03.440Z,99792.06
2023-05-11T03:13:34.810Z,99794.59
2023-05-11T03:14:06.158Z,99792.91
2023-05-11T03:14:37.455Z,99796.69
2023-05-11T03:15:08.866Z,99795.72
2023-05-11T03:15:40.227Z,99794.84
2023-05-11T03:16:11.647Z,99799.34
2023-05-11T03:16:42.989Z,99793.31
2023-05-11T03:17:14.699Z,99795.97
2023-05-11T03:17:46.196Z,99798.63
2023-05-11T03:18:17.611Z,99795.16
2023-05-11T03:18:49.099Z,99786.03
2023-05-11T03:19:20.506Z,99790.41
2023-05-11T03:19:51.841Z,99794.16
2023-05-11T03:20:23.373Z,99795.97
2023-05-11T03:20:54.696Z,99793.19
2023-05-11T03:21:26.021Z,99792.47
2023-05-11T03:21:57.934Z,99797.66
2023-05-11T03:22:29.233Z,99792.47
2023-05-11T03:23:00.550Z,99795.28
2023-05-11T03:23:31.880Z,99794.16
2023-05-11T03:24:03.548Z,99793.31
2023-05-11T03:24:34.868Z,99791.63
2023-05-11T03:25:06.290Z,99789.69
2023-05-11T03:25:37.616Z,99782.41
2023-05-11T03:26:08.982Z,99782.56
2023-05-11T03:26:40.795Z,99786.03
2023-05-11T03:27:12.118Z,99790.66
2023-05-11T03:27:43.468Z,99787.03
2023-05-11T03:28:14.833Z,99786.16
2023-05-11T03:28:46.198Z,99789.97
2023-05-11T03:29:17.530Z,99791.63
2023-05-11T03:29:48.878Z,99791.88
2023-05-11T03:30:20.379Z,99787.44
2023-05-11T03:30:51.901Z,99784.78
2023-05-11T03:31:23.247Z,99789.97
2023-05-11T03:31:54.841Z,99794.16
2023-05-11T03:32:26.242Z,99784.22
2023-05-11T03:32:57.693Z,99785.06
2023-05-11T03:33:29.027Z,99789.69
2023-05-11T03:34:00.348Z,99785.34
2023-05-11T03:34:32.070Z,99787.03
2023-05-11T03:35:03.480Z,99784.22
2023-05-11T03:35:34.832Z,99790.66
2023-05-11T03:36:06.283Z,99779.91
2023-05-11T03:36:38.394Z,99781.56
2023-05-11T03:37:10.561Z,99779.06
2023-05-11T03:37:41.910Z,99786.31
2023-05-11T03:38:13.249Z,99791.63
2023-05-11T03:38:47.394Z,99784.38
2023-05-11T03:39:18.697Z,99779.91
2023-05-11T03:39:50.976Z,99780.84
2023-05-11T03:40:22.356Z,99788.84
2023-05-11T03:40:53.692Z,99782.69
2023-05-11T03:41:25.212Z,99786.03
2023-05-11T03:41:56.559Z,99780.72
2023-05-11T03:42:27.891Z,99777.22
2023-05-11T03:42:59.301Z,99779.06
2023-05-11T03:43:30.688Z,99784.22
2023-05-11T03:44:02.796Z,99778.19
2023-05-11T03:44:34.164Z,99778.19
2023-05-11T03:45:05.772Z,99783.50
2023-05-11T03:45:37.104Z,99782.41
2023-05-11T03:46:08.627Z,99782.41
2023-05-11T03:46:40.260Z,99782.41
2023-05-11T03:47:11.704Z,99777.94
2023-05-11T03:47:43.098Z,99782.41
2023-05-11T03:48:14.625Z,99781.72
2023-05-11T03:48:45.920Z,99782.16
2023-05-11T03:49:17.718Z,99775.41
2023-05-11T03:49:49.581Z,99776.41
2023-05-11T03:50:21.000Z,99775.41
2023-05-11T03:50:52.306Z,99782.41
2023-05-11T03:51:23.715Z,99779.06
2023-05-11T03:51:55.025Z,99779.06
2023-05-11T03:52:26.341Z,99781.56
2023-05-11T03:52:57.682Z,99778.75
2023-05-11T03:53:29.036Z,99784.22
2023-05-11T03:54:00.394Z,99782.41
2023-05-11T03:54:31.780Z,99778.06
2023-05-11T03:55:03.321Z,99780.59
2023-05-11T03:55:34.696Z,99780.72
2023-05-11T03:56:06.225Z,99776.41
2023-05-11T03:56:37.915Z,99772.88
2023-05-11T03:57:09.546Z,99779.06
2023-05-11T03:57:40.922Z,99775.41
2023-05-11T03:58:12.270Z,99771.78
2023-05-11T03:58:43.626Z,99776.84
2023-05-11T03:59:17.682Z,99772.47
2023-05-11T03:59:49.081Z,99779.06
2023-05-11T04:00:20.626Z,99775.53
2023-05-11T04:00:52.094Z,99779.75
2023-05-11T04:01:23.416Z,99771.22
2023-05-11T04:01:54.796Z,99780.03
2023-05-11T04:02:26.210Z,99779.31
2023-05-11T04:02:57.705Z,99775.94
2023-05-11T04:03:29.208Z,99783.78
2023-05-11T04:04:00.671Z,99773.16
2023-05-11T04:04:32.223Z,99773.16
2023-05-11T04:05:07.356Z,99780.03
2023-05-11T04:05:38.677Z,99777.38
2023-05-11T04:06:09.971Z,99786.31
2023-05-11T04:06:41.299Z,99779.31
2023-05-11T04:07:12.652Z,99774.84
2023-05-11T04:07:43.948Z,99784.50
2023-05-11T04:08:15.372Z,99777.38
2023-05-11T04:08:46.704Z,99780.97
2023-05-11T04:09:18.025Z,99776.53
2023-05-11T04:09:49.350Z,99782.69
2023-05-11T04:10:20.782Z,99784.38
2023-05-11T04:10:52.176Z,99776.53
2023-05-11T04:11:23.496Z,99781.84
2023-05-11T04:11:54.923Z,99780.97
2023-05-11T04:12:26.354Z,99770.34
2023-05-11T04:12:57.673Z,99783.66
2023-05-11T04:13:29.001Z,99775.66
2023-05-11T04:14:00.326Z,99775.66
2023-05-11T04:14:31.647Z,99780.28
2023-05-11T04:15:03.010Z,99777.63
2023-05-11T04:15:34.331Z,99773.41
2023-05-11T04:16:06.002Z,99787.44
2023-05-11T04:16:37.510Z,99777.63
2023-05-11T04:17:08.936Z,99780.28
2023-05-11T04:17:40.354Z,99783.91
2023-05-11T04:18:11.731Z,99790.91
2023-05-11T04:18:43.073Z,99784.63
2023-05-11T04:19:14.483Z,99779.31
2023-05-11T04:19:45.801Z,99788.13
2023-05-11T04:20:17.349Z,99784.50
2023-05-11T04:20:48.748Z,99789.69
2023-05-11T04:21:20.096Z,99782.56
2023-05-11T04:21:51.546Z,99786.31
2023-05-11T04:22:22.861Z,99790.66
2023-05-11T04:22:54.217Z,99789.97
2023-05-11T04:23:25.532Z,99790.78
2023-05-11T04:23:56.860Z,99787.28
2023-05-11T04:24:28.236Z,99786.56
2023-05-11T04:24:59.561Z,99783.66
2023-05-11T04:25:30.856Z,99785.47
2023-05-11T04:26:02.205Z,99781.84
2023-05-11T04:26:33.531Z,99793.31
2023-05-11T04:27:04.890Z,99783.50
2023-05-11T04:27:36.190Z,99782.69
2023-05-11T04:28:07.579Z,99788.97
2023-05-11T04:28:38.898Z,99787.03
2023-05-11T04:29:10.367Z,99785.22
2023-05-11T04:29:41.696Z,99785.34
2023-05-11T04:30:13.105Z,99795.00
2023-05-11T04:30:44.442Z,99788.00
2023-05-11T04:31:15.759Z,99788.00
2023-05-11T04:31:47.132Z,99782.81
2023-05-11T04:32:18.464Z,99793.44
2023-05-11T04:32:49.802Z,99790.78
2023-05-11T04:33:21.291Z,99788.00
2023-05-11T04:33:52.696Z,99792.34
2023-05-11T04:34:24.039Z,99782.69
2023-05-11T04:34:55.354Z,99794.84
2023-05-11T04:35:26.679Z,99793.31
2023-05-11T04:35:58.036Z,99796.94
2023-05-11T04:36:29.346Z,99786.31
2023-05-11T04:37:00.636Z,99791.75
2023-05-11T04:37:31.992Z,99793.72
2023-05-11T04:38:03.508Z,99794.41
2023-05-11T04:38:35.156Z,99797.19
2023-05-11T04:39:07.892Z,99791.88
2023-05-11T04:39:39.351Z,99790.91
2023-05-11T04:40:10.915Z,99784.91
2023-05-11T04:40:42.269Z,99792.88
2023-05-11T04:41:13.596Z,99797.31
2023-05-11T04:41:45.139Z,99799.03
2023-05-11T04:42:16.513Z,99793.00
2023-05-11T04:42:47.801Z,99792.88
2023-05-11T04:43:19.127Z,99799.84
2023-05-11T04:43:50.522Z,99797.19
2023-05-11T04:44:21.875Z,99798.19
2023-05-11T04:44:53.492Z,99802.50
2023-05-11T04:45:24.795Z,99796.38
2023-05-11T04:45:56.113Z,99801.81
2023-05-11T04:46:27.510Z,99799.84
2023-05-11T04:46:58.890Z,99798.91
2023-05-11T04:47:30.268Z,99799.72
2023-05-11T04:48:01.680Z,99798.63
2023-05-11T04:48:33.047Z,99800.59
2023-05-11T04:49:05.057Z,99803.13
2023-05-11T04:49:36.353Z,99794.28
2023-05-11T04:50:07.814Z,99801.16
2023-05-11T04:50:39.146Z,99802.25
2023-05-11T04:51:10.533Z,99800.59
2023-05-11T04:51:41.828Z,99800.59
2023-05-11T04:52:13.169Z,99805.19
2023-05-11T04:52:44.487Z,99803.25
2023-05-11T04:53:15.823Z,99804.22
2023-05-11T04:53:47.588Z,99803.25
2023-05-11T04:54:18.979Z,99799.84
2023-05-11T04:54:50.296Z,99797.94
2023-05-11T04:55:21.605Z,99802.25
2023-05-11T04:55:52.955Z,99798.91
2023-05-11T04:56:24.272Z,99804.09
2023-05-11T04:56:55.657Z,99803.25
2023-05-11T04:57:27.043Z,99803.38
2023-05-11T04:57:58.406Z,99801.41
2023-05-11T04:58:29.769Z,99803.25
2023-05-11T04:59:02.485Z,99803.25
2023-05-11T04:59:35.413Z,99800.84
2023-05-11T05:00:07.219Z,99800.97
2023-05-11T05:00:38.567Z,99804.47
2023-05-11T05:01:09.928Z,99800.72
2023-05-11T05:01:41.411Z,99803.50
2023-05-11T05:02:12.960Z,99800.00
2023-05-11T05:02:44.347Z,99807.84
2023-05-11T05:03:15.807Z,99798.91
2023-05-11T05:03:49.821Z,99805.19
2023-05-11T05:04:21.268Z,99803.50
2023-05-11T05:04:52.716Z,99797.31
2023-05-11T05:05:24.076Z,99797.31
2023-05-11T05:05:55.413Z,99799.16
2023-05-11T05:06:26.758Z,99798.19
2023-05-11T05:06:58.144Z,99800.84
2023-05-11T05:07:29.578Z,99801.69
2023-05-11T05:08:01.016Z,99801.56
2023-05-11T05:08:32.433Z,99797.19
2023-05-11T05:09:04.089Z,99799.16
2023-05-11T05:09:35.502Z,99800.97
2023-05-11T05:10:07.108Z,99804.47
2023-05-11T05:10:38.405Z,99807.13
2023-05-11T05:11:09.803Z,99800.84
2023-05-11T05:11:41.176Z,99803.50
2023-05-11T05:12:12.610Z,99802.50
2023-05-11T05:12:43.949Z,99806.16
2023-05-11T05:13:15.383Z,99810.50
2023-05-11T05:13:46.716Z,99807.00
2023-05-11T05:14:18.033Z,99807.00
2023-05-11T05:14:49.399Z,99802.50
2023-05-11T05:15:20.837Z,99807.84
2023-05-11T05:15:52.152Z,99806.16
2023-05-11T05:16:23.468Z,99804.34
2023-05-11T05:16:54.956Z,99803.50
2023-05-11T05:17:26.358Z,99808.97
2023-05-11T05:17:57.840Z,99809.66
2023-05-11T05:18:29.278Z,99813.75
2023-05-11T05:19:00.693Z,99805.66
2023-05-11T05:19:32.061Z,99804.91
2023-05-11T05:20:14.336Z,99809.53
2023-05-11T05:20:51.189Z,99807.00
2023-05-11T05:21:33.187Z,99805.91
2023-05-11T05:22:10.823Z,99809.53
2023-05-11T05:22:51.826Z,99811.22
2023-05-11T05:23:36.121Z,99812.19
2023-05-11T05:24:12.114Z,99809.25
2023-05-11T05:24:59.280Z,99812.88
2023-05-11T05:25:52.417Z,99812.06
2023-05-11T05:26:28.880Z,99808.44
2023-05-11T05:27:04.697Z,99813.88
2023-05-11T05:27:56.452Z,99815.53
2023-05-11T05:29:34.577Z,99812.88
2023-05-11T06:05:24.355Z,99847.13
2023-05-11T06:05:55.632Z,99840.00
2023-05-11T06:06:26.916Z,99840.84
2023-05-11T06:06:58.208Z,99840.84
2023-05-11T06:07:29.555Z,99845.19
2023-05-11T06:08:09.983Z,99847.00
2023-05-11T06:08:42.893Z,99842.25
2023-05-11T06:09:14.512Z,99839.72
2023-05-11T06:09:46.144Z,99852.06
2023-05-11T06:10:18.029Z,99846.75
2023-05-11T06:10:49.876Z,99843.13
2023-05-11T06:11:21.523Z,99848.44
2023-05-11T06:11:53.143Z,99851.09
2023-05-11T06:12:24.828Z,99845.06
2023-05-11T06:12:56.404Z,99852.06
2023-05-11T06:13:28.013Z,99846.63
2023-05-11T06:13:59.617Z,99855.44
2023-05-11T06:14:31.500Z,99849.97
2023-05-11T06:15:03.378Z,99850.69
2023-05-11T06:15:35.009Z,99852.50
2023-05-11T06:16:06.651Z,99853.50
2023-05-11T06:16:38.310Z,99849.97
2023-05-11T06:17:10.070Z,99849.28
2023-05-11T06:17:41.761Z,99848.44
2023-05-11T06:18:13.531Z,99854.47
2023-05-11T06:18:46.033Z,99851.81
2023-05-11T06:19:17.716Z,99848.44
2023-05-11T06:19:49.684Z,99843.97
2023-05-11T06:20:21.344Z,99845.91
2023-05-11T06:20:52.972Z,99847.44
2023-05-11T06:21:24.489Z,99844.78
2023-05-11T06:21:56.029Z,99842.13
2023-05-11T06:22:27.624Z,99844.91
2023-05-11T06:22:59.233Z,99843.13
2023-05-11T06:23:30.815Z,99850.38
2023-05-11T06:24:02.437Z,99844.78
2023-05-11T06:24:34.014Z,99849.16
2023-05-11T06:25:05.955Z,99841.31
2023-05-11T06:25:37.639Z,99850.25
2023-05-11T06:26:09.384Z,99849.16
2023-05-11T06:26:41.049Z,99850.84
2023-05-11T06:27:12.936Z,99847.31
2023-05-11T06:27:44.669Z,99849.00
2023-05-11T06:28:16.271Z,99848.19
2023-05-11T06:28:47.887Z,99854.19
2023-05-11T06:29:19.520Z,99853.50
2023-05-11T06:29:51.240Z,99851.69
2023-05-11T06:30:22.856Z,99846.34
2023-05-11T06:30:56.173Z,99854.19
2023-05-11T06:31:27.847Z,99853.50
2023-05-11T06:31:59.499Z,99851.53
2023-05-11T06:32:31.184Z,99858.53
2023-05-11T06:33:02.899Z,99854.06
2023-05-11T06:33:34.544Z,99849.84
2023-05-11T06:34:06.119Z,99856.84
2023-05-11T06:34:37.722Z,99851.53
2023-05-11T06:35:09.416Z,99847.88
2023-05-11T06:35:40.958Z,99853.22
2023-05-11T06:36:12.555Z,99851.28
2023-05-11T06:36:44.241Z,99849.47
2023-05-11T06:37:15.825Z,99849.72
2023-05-11T06:37:47.438Z,99847.06
2023-05-11T06:38:19.147Z,99858.53
2023-05-11T06:38:50.764Z,99847.19
2023-05-11T06:39:22.386Z,99851.69
2023-05-11T06:39:53.982Z,99848.88
2023-05-11T06:40:25.569Z,99854.06
2023-05-11T06:40:57.155Z,99849.72
2023-05-11T06:41:28.750Z,99851.28
2023-05-11T06:42:02.902Z,99853.94
2023-05-11T06:42:36.596Z,99849.31
2023-05-11T06:43:08.186Z,99851.03
2023-05-11T06:43:39.813Z,99851.16
2023-05-11T06:44:11.725Z,99853.81
2023-05-11T06:44:43.314Z,99853.94
2023-05-11T06:45:14.989Z,99854.06
2023-05-11T06:45:46.705Z,99855.75
2023-05-11T06:46:18.412Z,99848.50
2023-05-11T06:46:50.194Z,99854.91
2023-05-11T06:47:22.038Z,99851.28
2023-05-11T06:47:53.793Z,99851.28
2023-05-11T06:48:25.547Z,99847.63
2023-05-11T06:48:57.220Z,99854.91
2023-05-11T06:49:28.905Z,99853.94
2023-05-11T06:50:00.467Z,99848.38
2023-05-11T06:50:32.063Z,99852.94
2023-05-11T06:51:03.721Z,99852.94
2023-05-11T06:51:35.313Z,99861.78
2023-05-11T06:52:06.889Z,99852.13
2023-05-11T06:52:38.482Z,99850.56
2023-05-11T06:53:10.075Z,99854.06
2023-05-11T06:53:41.714Z,99855.88
2023-05-11T06:54:13.307Z,99854.63
2023-05-11T06:54:44.913Z,99856.47
2023-05-11T06:55:16.545Z,99858.88
2023-05-11T06:55:48.228Z,99851.72
2023-05-11T06:56:19.822Z,99858.56
2023-05-11T06:56:51.404Z,99859.69